• Join FlightAware (Why Join?)
  • Login
  • US Flag 
11:47AM EDT


 

Airport Tracker/Info


-or-


 

Live Flight TrackerFlight Track Log ✈ SWA487 ✈ 04-May-2012 ✈ KMSY - KDEN

Flight Track Log - Related Links

Times and Time Zones

All times are in EDT time to prevent confusion due to time zone crossing. See the SWA487 flight status page for this flight to view local times or setup timezone preferences in your user account.

Time Position Orientation Groundspeed Altitude Reporting Facility
EDT Latitude Longitude Course Direction KTS MPH feet Rate Location/Type
07:11AM 29.9950 -90.2917 329° Northwest 175 201 500  Level Houston Center
07:12AM 30.0392 -90.3222 332° Northwest 193 222 2,300 2,040 Climbing Houston Center
07:13AM 30.0958 -90.3575 331° Northwest 209 241 4,800 2,940 Climbing Houston Center
07:14AM 30.1608 -90.4000 329° Northwest 238 274 8,200 3,360 Climbing Houston Center
07:15AM 30.2281 -90.4472 330° Northwest 266 306 11,500 2,280 Climbing Houston Center
07:16AM 30.3058 -90.4992 330° Northwest 294 338 12,800 1,980 Climbing Houston Center
07:17AM 30.3942 -90.5583 309° West 333 383 15,500 2,520 Climbing Houston Center
07:18AM 30.4594 -90.6517 305° West 356 410 17,900 2,400 Climbing Houston Center
07:19AM 30.5269 -90.7617 305° West 368 423 20,400 2,100 Climbing Houston Center
07:20AM 30.5883 -90.8650 308° West 386 444 22,100 1,800 Climbing Houston Center
07:21AM 30.6597 -90.9731 310° West 399 459 24,000 1,920 Climbing Houston Center
07:22AM 30.7333 -91.0764 312° West 411 473 26,000 1,860 Climbing Houston Center
07:23AM 30.8108 -91.1775 309° West 416 479 27,800 1,920 Climbing Houston Center
07:24AM 30.8864 -91.2861 309° West 426 490 29,900 2,340 Climbing Houston Center
07:25AM 30.9556 -91.3850 310° West 421 484 32,500 1,800 Climbing Houston Center
07:26AM 31.0267 -91.4842 311° West 409 471 33,600 1,320 Climbing Houston Center
07:27AM 31.0978 -91.5786 310° West 399 459 35,200 1,200 Climbing Houston Center
07:28AM 31.1664 -91.6756 310° West 394 453 36,000 360 Climbing Houston Center
07:29AM 31.2333 -91.7703 310° West 394 453 36,000  Level Houston Center
07:30AM 31.3042 -91.8675 310° West 394 453 36,000  Level Houston Center
07:31AM 31.3728 -91.9625 309° West 394 453 36,000  Level Houston Center
07:32AM 31.4350 -92.0528 310° West 394 453 36,000  Level Houston Center
07:33AM 31.5036 -92.1503 309° West 394 453 36,000  Level Houston Center
07:34AM 31.5719 -92.2481 310° West 394 453 36,000  Level Houston Center
07:36AM 31.7147 -92.4489 309° West 416 479 36,000  Level Fort Worth Center
07:37AM 31.7833 -92.5478 309° West 406 467 36,000  Level Fort Worth Center
07:38AM 31.8583 -92.6564 310° West 396 456 36,000  Level Fort Worth Center
07:39AM 31.9267 -92.7531 309° West 396 456 36,000  Level Fort Worth Center
07:40AM 31.9950 -92.8525 310° West 396 456 36,000  Level Fort Worth Center
07:41AM 32.0633 -92.9497 309° West 396 456 36,000  Level Fort Worth Center
07:42AM 32.1314 -93.0492 313° West 391 450 36,000  Level Fort Worth Center
07:43AM 32.1928 -93.1272 308° West 384 442 36,000  Level Fort Worth Center
07:44AM 32.2608 -93.2297 308° West 384 442 36,000  Level Fort Worth Center
07:45AM 32.3289 -93.3322 309° West 390 449 36,000  Level Fort Worth Center
07:46AM 32.3967 -93.4300 308° West 390 449 36,000  Level Fort Worth Center
07:47AM 32.4625 -93.5306 309° West 390 449 36,000  Level Fort Worth Center
07:48AM 32.5322 -93.6311 308° West 390 449 36,000  Level Fort Worth Center
07:49AM 32.5981 -93.7319 309° West 390 449 36,000  Level Fort Worth Center
07:50AM 32.6656 -93.8328 309° West 390 449 36,000  Level Fort Worth Center
07:51AM 32.7353 -93.9336 308° West 390 449 36,000  Level Fort Worth Center
07:52AM 32.8092 -94.0444 309° West 390 449 36,000  Level Fort Worth Center
07:53AM 32.8786 -94.1483 308° West 390 449 36,000  Level Fort Worth Center
07:54AM 32.9439 -94.2497 309° West 390 449 36,000  Level Fort Worth Center
07:55AM 33.0133 -94.3539 310° West 390 449 36,000  Level Fort Worth Center
07:56AM 33.0803 -94.4508 307° West 395 455 36,000  Level Fort Worth Center
07:57AM 33.1453 -94.5528 309° West 390 449 36,000  Level Fort Worth Center
07:58AM 33.2122 -94.6500 308° West 385 443 36,000  Level Fort Worth Center
07:59AM 33.2792 -94.7522 309° West 390 449 36,000  Level Fort Worth Center
08:00AM 33.3436 -94.8472 308° West 384 442 36,000  Level Fort Worth Center
08:01AM 33.4106 -94.9497 308° West 384 442 36,000  Level Fort Worth Center
08:02AM 33.4750 -95.0503 309° West 384 442 36,000  Level Fort Worth Center
08:03AM 33.5417 -95.1506 307° West 389 448 36,000  Level Fort Worth Center
08:04AM 33.6058 -95.2536 309° West 389 448 36,000  Level Fort Worth Center
08:05AM 33.6744 -95.3544 308° West 389 448 36,000  Level Fort Worth Center
08:06AM 33.7408 -95.4553 306° West 389 448 36,000  Level Fort Worth Center
08:07AM 33.8028 -95.5564 310° West 384 442 36,000  Level Fort Worth Center
08:08AM 33.8647 -95.6450 309° West 392 451 36,000  Level Fort Worth Center
08:09AM 33.9328 -95.7464 307° West 392 451 36,000  Level Fort Worth Center
08:10AM 33.9967 -95.8478 307° West 387 445 36,000  Level Fort Worth Center
08:11AM 34.0625 -95.9519 304° West 387 445 36,000  Level Fort Worth Center
08:12AM 34.1244 -96.0636 308° West 387 445 36,000  Level Fort Worth Center
08:13AM 34.1900 -96.1656 307° West 381 438 36,000  Level Fort Worth Center
08:14AM 34.2558 -96.2703 308° West 381 438 36,000  Level Fort Worth Center
08:15AM 34.3150 -96.3625 307° West 381 438 36,000  Level Fort Worth Center
08:16AM 34.3806 -96.4672 308° West 387 445 36,000  Level Fort Worth Center
08:17AM 34.4481 -96.5725 306° West 392 451 36,000  Level Fort Worth Center
08:18AM 34.5114 -96.6775 308° West 392 451 36,000  Level Fort Worth Center
08:19AM 34.5786 -96.7806 306° West 392 451 36,000  Level Fort Worth Center
08:20AM 34.6439 -96.8886 308° West 392 451 36,000  Level Fort Worth Center
08:21AM 34.7172 -97.0042 306° West 392 451 36,000  Level Fort Worth Center
08:22AM 34.7800 -97.1078 308° West 392 451 36,000  Level Fort Worth Center
08:23AM 34.8469 -97.2136 307° West 392 451 36,000  Level Fort Worth Center
08:24AM 34.9139 -97.3225 306° West 392 451 36,000  Level Fort Worth Center
08:25AM 34.9767 -97.4286 306° West 392 451 36,000  Level Fort Worth Center
08:26AM 35.0350 -97.5250 308° West 392 451 36,000  Level Fort Worth Center
08:27AM 35.1058 -97.6344 310° West 397 457 36,000  Level Fort Worth Center
08:28AM 35.1764 -97.7361 309° West 397 457 36,000  Level Fort Worth Center
08:29AM 35.2469 -97.8431 308° West 397 457 36,000  Level Fort Worth Center
08:30AM 35.3194 -97.9581 315° West 397 457 36,000  Level Fort Worth Center
08:31AM 35.3983 -98.0553 316° Northwest 397 457 36,000  Level Fort Worth Center
08:32AM 35.4792 -98.1528 308° West 397 457 36,000  Level Fort Worth Center
08:33AM 35.5453 -98.2556 308° West 397 457 36,000  Level Fort Worth Center
08:35AM 35.6917 -98.4853 308° West 403 464 36,000  Level Kansas City Center
08:36AM 35.7611 -98.5939 307° West 403 464 36,000  Level Kansas City Center
08:37AM 35.8361 -98.7156 308° West 403 464 36,000  Level Kansas City Center
08:38AM 35.9072 -98.8269 309° West 403 464 36,000  Level Kansas City Center
08:39AM 35.9783 -98.9361 307° West 403 464 36,000  Level Kansas City Center
08:40AM 36.0492 -99.0508 306° West 416 479 36,000  Level Kansas City Center
08:41AM 36.1158 -99.1625 308° West 430 495 36,000  Level Kansas City Center
08:42AM 36.1883 -99.2775 308° West 430 495 36,000  Level Kansas City Center
08:43AM 36.2608 -99.3928 307° West 430 495 36,000  Level Kansas City Center
08:44AM 36.3311 -99.5081 307° West 425 489 36,000  Level Kansas City Center
08:45AM 36.4014 -99.6261 307° West 425 489 36,000  Level Kansas City Center
08:46AM 36.4714 -99.7417 308° West 425 489 36,000  Level Kansas City Center
08:47AM 36.5433 -99.8578 308° West 425 489 36,000  Level Kansas City Center
08:48AM 36.6153 -99.9742 307° West 425 489 36,000  Level Kansas City Center
08:49AM 36.6850 -100.0903 308° West 425 489 36,000  Level Kansas City Center
08:50AM 36.7625 -100.2153 306° West 425 489 36,000  Level Kansas City Center
08:51AM 36.8261 -100.3239 308° West 425 489 36,000  Level Kansas City Center
08:52AM 36.9056 -100.4519 306° West 425 489 36,000  Level Kansas City Center
08:53AM 36.9744 -100.5717 307° West 425 489 36,000  Level Kansas City Center
08:54AM 37.0436 -100.6867 307° West 430 495 36,000  Level Kansas City Center
08:55AM 37.1089 -100.7961 307° West 430 495 36,000  Level Kansas City Center
08:56AM 37.1856 -100.9250 306° West 424 488 36,000  Level Kansas City Center
08:57AM 37.2542 -101.0431 306° West 424 488 36,000  Level Kansas City Center
08:58AM 37.3228 -101.1611 306° West 424 488 36,000  Level Kansas City Center
08:59AM 37.3856 -101.2686 307° West 424 488 36,000  Level Kansas City Center
09:00AM 37.4542 -101.3847 306° West 424 488 36,000  Level Kansas City Center
09:02AM 37.5958 -101.6322 306° West 421 484 36,000  Level Denver Center
09:03AM 37.6567 -101.7383 307° West 416 479 36,000  Level Denver Center
09:04AM 37.7261 -101.8569 306° West 416 479 36,000  Level Denver Center
09:05AM 37.8003 -101.9864 305° West 416 479 36,000  Level Denver Center
09:06AM 37.8672 -102.1056 306° West 421 484 36,000  Level Denver Center
09:07AM 37.9278 -102.2125 307° West 421 484 36,000 -480 Level Denver Center
09:08AM 37.9967 -102.3297 304° West 421 484 35,100 -1,020 Descending Denver Center
09:09AM 38.0681 -102.4625 307° West 415 478 34,000 -1,080 Descending Denver Center
09:10AM 38.1369 -102.5803 305° West 415 478 33,000 -1,020 Descending Denver Center
09:11AM 38.1944 -102.6853 311° West 415 478 32,000 -960 Descending Denver Center
09:12AM 38.2667 -102.7900 311° West 405 466 31,100 -1,020 Descending Denver Center
09:13AM 38.3456 -102.9075 310° West 405 466 30,000 -1,020 Descending Denver Center
09:14AM 38.4156 -103.0128 312° West 392 451 29,100 -960 Descending Denver Center
09:15AM 38.4786 -103.1025 309° West 387 445 28,100 -960 Descending Denver Center
09:16AM 38.5444 -103.2081 313° West 380 437 27,200 -600 Descending Denver Center
09:17AM 38.6203 -103.3136 309° West 374 430 27,000 -120 Descending Denver Center
09:18AM 38.6833 -103.4119 309° West 369 425 27,000  Level Denver Center
09:19AM 38.7422 -103.5050 309° West 376 433 27,000  Level Denver Center
09:20AM 38.8053 -103.6036 318° Northwest 362 417 27,000 -60 Level Denver Center
09:21AM 38.8825 -103.6939 319° Northwest 353 406 26,900 -1,140 Descending Denver Center
09:22AM 38.9594 -103.7789 319° Northwest 353 406 24,800 -1,920 Descending Denver Center
09:23AM 39.0303 -103.8592 318° Northwest 348 400 23,100 -1,800 Descending Denver Center
09:24AM 39.0967 -103.9369 319° Northwest 333 383 21,200 -1,980 Descending Denver Center
09:25AM 39.1650 -104.0147 333° Northwest 328 377 19,200 -1,860 Descending Denver Center
09:26AM 39.2347 -104.0606 342° North 316 364 17,500 -1,980 Descending Denver Center
09:27AM 39.3231 -104.0978 341° North 322 371 15,300 -2,040 Descending Denver Center
09:28AM 39.4072 -104.1353 341° North 322 371 13,500 -1,200 Descending Denver Center
09:29AM 39.4894 -104.1728 341° North 317 365 12,900 -1,080 Descending Denver Center
09:30AM 39.5672 -104.2078 339° North 306 352 11,400 -1,500 Descending Denver Center
09:31AM 39.6453 -104.2458 320° Northwest 301 346 10,000 -780 Descending Denver Center
09:32AM 39.7047 -104.3114 318° Northwest 286 329 9,900 -480 Descending Denver Center
09:33AM 39.7667 -104.3833 322° Northwest 259 298 9,100 -1,080 Descending Denver TRACON
09:34AM 39.8167 -104.4333 311° West 237 273 7,900 -1,140 Descending Denver TRACON
09:35AM 39.8500 -104.4833 311° West 221 254 7,000 -780 Descending Denver TRACON
09:36AM 39.8833 -104.5333 270° West 152 175 6,400 -600 Descending Denver TRACON
09:37AM 39.8833 -104.5833 270° West 141 162 5,800 -720 Descending Denver TRACON